createdAt,value
2023-02-11T00:00:15.715Z,78.00
2023-02-11T00:05:39.216Z,82.70
2023-02-11T00:11:45.191Z,79.00
2023-02-11T00:25:05.460Z,75.00
2023-02-11T00:31:35.518Z,77.90
2023-02-11T00:44:56.060Z,87.30
2023-02-11T00:57:03.422Z,89.20
2023-02-11T01:02:06.839Z,80.10
2023-02-11T01:07:10.208Z,87.50
2023-02-11T01:12:13.703Z,81.80
2023-02-11T01:17:17.692Z,90.60
2023-02-11T01:22:21.150Z,93.20
2023-02-11T01:27:24.894Z,87.50
2023-02-11T01:32:28.373Z,91.10
2023-02-11T01:37:34.505Z,86.30
2023-02-11T01:42:38.133Z,90.90
2023-02-11T01:47:41.571Z,98.90
2023-02-11T01:52:46.630Z,96.30
2023-02-11T01:57:55.750Z,89.10
2023-02-11T02:03:04.783Z,94.20
2023-02-11T02:08:17.536Z,86.80
2023-02-11T02:13:21.245Z,85.00
2023-02-11T02:18:39.745Z,80.10
2023-02-11T02:24:14.261Z,80.80
2023-02-11T02:29:50.131Z,80.30
2023-02-11T02:35:01.372Z,71.90
2023-02-11T02:40:09.618Z,65.70
2023-02-11T02:45:14.225Z,69.40
2023-02-11T02:50:24.435Z,69.90
2023-02-11T02:55:42.565Z,64.50
2023-02-11T03:01:02.983Z,64.20
2023-02-11T03:06:11.178Z,68.50
2023-02-11T03:11:19.005Z,62.40
2023-02-11T03:16:25.722Z,66.10
2023-02-11T03:21:35.436Z,60.30
2023-02-11T03:26:43.983Z,69.00
2023-02-11T03:31:56.072Z,70.70
2023-02-11T03:37:05.942Z,72.10
2023-02-11T03:42:11.708Z,67.60
2023-02-11T03:47:18.914Z,65.30
2023-02-11T03:52:24.942Z,68.60
2023-02-11T03:57:28.463Z,63.50
2023-02-11T04:02:34.727Z,65.10
2023-02-11T04:07:38.392Z,68.00
2023-02-11T04:12:42.043Z,68.70
2023-02-11T04:17:45.511Z,61.70
2023-02-11T04:22:48.922Z,65.10
2023-02-11T04:27:52.471Z,66.80
2023-02-11T04:32:56.294Z,68.70
2023-02-11T04:37:59.776Z,58.90
2023-02-11T04:43:03.244Z,67.00
2023-02-11T04:48:06.958Z,62.70
2023-02-11T04:53:10.426Z,63.80
2023-02-11T04:58:13.824Z,63.60
2023-02-11T05:03:17.338Z,64.20
2023-02-11T05:08:20.832Z,59.20
2023-02-11T05:13:24.205Z,61.70
2023-02-11T05:18:27.653Z,63.10
2023-02-11T05:23:31.018Z,61.60
2023-02-11T05:28:34.741Z,64.60
2023-02-11T05:33:38.629Z,68.40
2023-02-11T05:38:42.745Z,66.20
2023-02-11T05:43:49.273Z,63.50
2023-02-11T05:48:52.831Z,64.90
2023-02-11T05:53:56.510Z,67.20
2023-02-11T05:59:00.062Z,61.70
2023-02-11T06:04:03.541Z,66.40
2023-02-11T06:09:07.389Z,62.60
2023-02-11T06:14:10.994Z,63.00
2023-02-11T06:19:14.474Z,61.00
2023-02-11T06:24:38.386Z,58.60
2023-02-11T06:29:41.467Z,74.10
2023-02-11T06:34:45.269Z,62.10
2023-02-11T06:39:49.043Z,59.00
2023-02-11T06:44:52.467Z,61.50
2023-02-11T06:49:55.933Z,61.50
2023-02-11T06:54:59.456Z,65.00
2023-02-11T07:00:03.246Z,67.10
2023-02-11T07:05:08.135Z,61.60
2023-02-11T07:10:11.719Z,67.40
2023-02-11T07:15:15.198Z,71.00
2023-02-11T07:20:18.861Z,65.80
2023-02-11T07:25:22.587Z,64.20
2023-02-11T07:30:26.186Z,74.60
2023-02-11T07:35:30.092Z,72.70
2023-02-11T07:40:33.709Z,67.70
2023-02-11T07:45:39.568Z,65.70
2023-02-11T07:50:43.173Z,69.20
2023-02-11T07:55:46.672Z,74.20
2023-02-11T08:01:18.731Z,79.40
2023-02-11T08:07:44.865Z,64.30
2023-02-11T08:13:53.803Z,60.80
2023-02-11T08:26:26.789Z,52.30
2023-02-11T08:31:38.977Z,58.80
2023-02-11T08:36:51.856Z,54.40
2023-02-11T08:42:15.874Z,54.50
2023-02-11T08:47:27.633Z,60.00
2023-02-11T08:52:38.202Z,69.10
2023-02-11T08:58:26.768Z,50.70
2023-02-11T09:03:45.737Z,64.20
2023-02-11T09:09:35.008Z,56.80
2023-02-11T09:21:32.169Z,61.80
2023-02-11T09:27:39.472Z,61.70
2023-02-11T09:33:06.350Z,58.50
2023-02-11T09:45:13.336Z,58.10
2023-02-11T09:50:48.885Z,57.00
2023-02-11T09:56:16.525Z,58.00
2023-02-11T10:07:53.093Z,50.60
2023-02-11T10:13:48.646Z,52.50
2023-02-11T10:19:39.212Z,45.60
2023-02-11T10:31:19.513Z,43.20
2023-02-11T10:36:33.319Z,47.20
2023-02-11T10:41:54.587Z,48.00
2023-02-11T10:47:35.025Z,48.60
2023-02-11T10:52:47.754Z,49.10
2023-02-11T10:58:08.881Z,50.80
2023-02-11T11:03:43.987Z,50.20
2023-02-11T11:08:59.493Z,49.90
2023-02-11T11:14:30.211Z,50.20
2023-02-11T11:19:53.411Z,53.80
2023-02-11T11:25:01.221Z,55.20
2023-02-11T11:30:16.190Z,51.20
2023-02-11T11:35:33.445Z,52.30
2023-02-11T11:41:24.274Z,59.40
2023-02-11T11:46:49.229Z,56.90
2023-02-11T11:52:05.907Z,56.70
2023-02-11T11:57:32.398Z,62.40
2023-02-11T12:03:05.213Z,54.60
2023-02-11T12:08:30.439Z,51.30
2023-02-11T12:14:07.286Z,58.30
2023-02-11T12:20:08.284Z,50.50
2023-02-11T12:25:29.028Z,56.00
2023-02-11T12:31:06.341Z,53.80
2023-02-11T12:36:33.162Z,53.70
2023-02-11T12:42:14.400Z,45.30
2023-02-11T12:47:39.654Z,50.10
2023-02-11T12:53:10.702Z,51.20
2023-02-11T12:58:32.560Z,49.30
2023-02-11T13:03:57.824Z,53.60
2023-02-11T13:15:05.762Z,49.50
2023-02-11T13:20:33.037Z,44.80
2023-02-11T13:26:00.700Z,49.30
2023-02-11T13:31:13.810Z,49.40
2023-02-11T13:36:33.692Z,48.90
2023-02-11T13:42:04.434Z,55.70
2023-02-11T13:47:32.658Z,54.20
2023-02-11T13:52:42.326Z,55.90
2023-02-11T13:58:28.397Z,52.70
2023-02-11T14:03:58.173Z,46.00
2023-02-11T14:09:53.111Z,48.30
2023-02-11T14:15:33.589Z,49.30
2023-02-11T14:21:20.362Z,45.10
2023-02-11T14:26:46.772Z,60.50
2023-02-11T14:32:06.133Z,48.30
2023-02-11T14:37:31.320Z,48.70
2023-02-11T14:42:46.068Z,51.50
2023-02-11T14:48:11.469Z,52.90
2023-02-11T14:53:38.008Z,52.00
2023-02-11T14:58:54.371Z,56.80
2023-02-11T15:04:26.362Z,53.90
2023-02-11T15:09:48.144Z,49.40
2023-02-11T15:15:15.487Z,57.60
2023-02-11T15:20:39.410Z,56.60
2023-02-11T15:26:02.870Z,56.00
2023-02-11T15:31:20.502Z,59.00
2023-02-11T15:36:42.933Z,58.20
2023-02-11T15:41:57.126Z,68.20
2023-02-11T15:47:17.121Z,59.10
2023-02-11T15:52:46.937Z,63.00
2023-02-11T15:57:59.554Z,61.80
2023-02-11T16:03:19.268Z,56.40
2023-02-11T16:08:39.662Z,55.70
2023-02-11T16:13:58.749Z,55.20
2023-02-11T16:19:17.316Z,56.40
2023-02-11T16:24:40.332Z,54.50
2023-02-11T16:29:56.911Z,55.50
2023-02-11T16:35:08.582Z,58.90
2023-02-11T16:40:26.285Z,54.60
2023-02-11T16:45:45.530Z,48.90
2023-02-11T16:51:02.335Z,50.00
2023-02-11T16:56:19.780Z,54.90
2023-02-11T17:01:26.541Z,49.60
2023-02-11T17:06:45.027Z,51.10
2023-02-11T17:11:54.991Z,52.00
2023-02-11T17:17:02.885Z,53.30
2023-02-11T17:22:12.371Z,50.30
2023-02-11T17:27:25.900Z,57.70
2023-02-11T17:32:39.387Z,52.70
2023-02-11T17:37:48.073Z,58.70
2023-02-11T17:42:59.792Z,55.60
2023-02-11T17:48:15.615Z,52.50
2023-02-11T17:53:29.381Z,44.90
2023-02-11T17:58:36.946Z,57.40
2023-02-11T18:04:01.048Z,49.40
2023-02-11T18:09:12.334Z,47.50
2023-02-11T18:14:21.365Z,53.60
2023-02-11T18:19:37.220Z,49.20
2023-02-11T18:24:51.362Z,48.90
2023-02-11T18:30:19.493Z,48.70
2023-02-11T18:35:27.701Z,48.40
2023-02-11T18:40:32.122Z,49.40
2023-02-11T18:45:35.657Z,42.60
2023-02-11T18:50:40.551Z,43.30
2023-02-11T18:55:44.904Z,50.90
2023-02-11T19:00:49.635Z,50.30
2023-02-11T19:05:54.625Z,46.80
2023-02-11T19:10:58.669Z,44.60
2023-02-11T19:16:15.250Z,53.10
2023-02-11T19:21:50.885Z,52.60
2023-02-11T19:26:58.821Z,47.10
2023-02-11T19:32:08.189Z,55.10
2023-02-11T19:37:19.202Z,44.40
2023-02-11T19:42:40.871Z,49.20
2023-02-11T19:47:51.343Z,47.10
2023-02-11T19:53:09.524Z,51.50
2023-02-11T19:58:35.027Z,49.90
2023-02-11T20:03:53.317Z,50.90
2023-02-11T20:09:19.033Z,47.30
2023-02-11T20:14:34.198Z,46.00
2023-02-11T20:19:55.215Z,49.60
2023-02-11T20:25:11.658Z,40.80
2023-02-11T20:30:22.199Z,46.40
2023-02-11T20:35:41.864Z,52.40
2023-02-11T20:40:49.520Z,48.20
2023-02-11T20:46:10.713Z,47.30
2023-02-11T20:51:23.556Z,47.10
2023-02-11T20:56:32.101Z,53.00
2023-02-11T21:01:43.972Z,54.30
2023-02-11T21:07:09.203Z,52.10
2023-02-11T21:12:28.747Z,51.10
2023-02-11T21:17:42.808Z,50.10
2023-02-11T21:22:57.750Z,47.30
2023-02-11T21:28:23.540Z,47.10
2023-02-11T21:33:35.947Z,49.50
2023-02-11T21:38:57.695Z,47.90
2023-02-11T21:44:12.331Z,47.80
2023-02-11T21:49:23.031Z,49.10
2023-02-11T21:54:33.090Z,51.00
2023-02-11T21:59:44.606Z,50.50
2023-02-11T22:04:55.173Z,52.90
2023-02-11T22:10:04.818Z,55.40
2023-02-11T22:15:11.047Z,49.90
2023-02-11T22:20:16.565Z,57.90
2023-02-11T22:25:31.400Z,57.70
2023-02-11T22:30:41.109Z,63.90
2023-02-11T22:35:48.456Z,57.40
2023-02-11T22:40:54.129Z,55.00
2023-02-11T22:46:06.367Z,59.80
2023-02-11T22:51:17.824Z,59.00
2023-02-11T22:56:24.930Z,55.70
2023-02-11T23:01:31.418Z,57.10
2023-02-11T23:06:42.752Z,54.10
2023-02-11T23:11:53.945Z,55.30
2023-02-11T23:16:59.942Z,55.70
2023-02-11T23:22:08.002Z,52.10
2023-02-11T23:27:19.987Z,52.90
2023-02-11T23:32:25.321Z,54.70
2023-02-11T23:37:32.475Z,57.00
2023-02-11T23:42:37.616Z,56.30
2023-02-11T23:47:42.640Z,56.60
2023-02-11T23:52:55.225Z,55.90
2023-02-11T23:58:00.805Z,53.70
